createdAt,value
2022-12-04T00:00:04.145Z,1.6
2022-12-04T00:01:04.147Z,1.7
2022-12-04T00:02:04.142Z,2.1
2022-12-04T00:03:04.223Z,1.7
2022-12-04T00:04:04.142Z,1.9
2022-12-04T00:05:04.314Z,2.2
2022-12-04T00:06:04.163Z,2.3
2022-12-04T00:07:04.152Z,2
2022-12-04T00:08:04.200Z,1.6
2022-12-04T00:09:04.149Z,1
2022-12-04T00:10:04.139Z,1.2
2022-12-04T00:11:04.143Z,1.4
2022-12-04T00:12:04.147Z,1.6
2022-12-04T00:16:04.180Z,0.8
2022-12-04T00:18:36.783Z,0.9
2022-12-04T00:23:33.179Z,0.7
2022-12-04T00:25:42.895Z,0.6
2022-12-04T00:40:34.106Z,0.7
2022-12-04T01:00:05.278Z,2
2022-12-04T01:13:46.504Z,1.3
2022-12-04T01:15:37.657Z,2
2022-12-04T01:20:36.119Z,2.2
2022-12-04T01:21:31.688Z,1.4
2022-12-04T01:22:45.821Z,1.7
2022-12-04T01:23:04.334Z,0.6
2022-12-04T01:23:43.406Z,2.1
2022-12-04T01:24:36.947Z,2.1
2022-12-04T01:25:32.525Z,1.7
2022-12-04T01:28:04.135Z,2.4
2022-12-04T01:29:04.144Z,2.1
2022-12-04T01:30:04.150Z,2.1
2022-12-04T01:31:04.150Z,1.8
2022-12-04T01:32:04.167Z,2.2
2022-12-04T01:33:04.137Z,2.1
2022-12-04T01:34:04.137Z,1.3
2022-12-04T01:35:04.160Z,1.3
2022-12-04T01:36:04.137Z,1.5
2022-12-04T01:37:04.139Z,1.7
2022-12-04T01:38:04.160Z,2
2022-12-04T01:39:04.145Z,2.3
2022-12-04T01:42:04.142Z,1.2
2022-12-04T01:43:04.165Z,1.3
2022-12-04T01:44:04.161Z,1.3
2022-12-04T01:45:04.151Z,1.4
2022-12-04T01:47:36.765Z,1.6
2022-12-04T01:52:33.158Z,1.6
2022-12-04T01:55:04.132Z,1.6
2022-12-04T01:56:04.129Z,1.8
2022-12-04T01:57:04.165Z,1.9
2022-12-04T01:58:04.139Z,1.8
2022-12-04T01:59:04.126Z,2.1
2022-12-04T02:02:32.379Z,2.3
2022-12-04T02:11:33.659Z,2.3
2022-12-04T02:13:43.332Z,2
2022-12-04T02:18:41.775Z,2.5
2022-12-04T02:19:37.367Z,2.5
2022-12-04T02:23:21.765Z,2.8
2022-12-04T02:31:45.987Z,1.6
2022-12-04T02:32:04.524Z,2.3
2022-12-04T02:34:04.134Z,1.5
2022-12-04T02:35:46.985Z,1.1
2022-12-04T02:37:01.103Z,1.7
2022-12-04T02:49:44.738Z,1.7
2022-12-04T02:50:03.301Z,1.2
2022-12-04T02:51:35.872Z,1.9
2022-12-04T02:54:04.164Z,1.9
2022-12-04T02:56:36.751Z,2.2
2022-12-04T03:01:33.279Z,1.8
2022-12-04T03:05:36.034Z,1.9
2022-12-04T03:06:31.597Z,2.1
2022-12-04T03:08:41.276Z,1.8
2022-12-04T03:09:38.898Z,1.2
2022-12-04T03:10:34.481Z,1.6
2022-12-04T03:11:11.523Z,2.3
2022-12-04T03:11:48.573Z,1.4
2022-12-04T03:12:44.188Z,1.5
2022-12-04T03:13:21.194Z,1.5
2022-12-04T03:14:04.146Z,1.5
2022-12-04T03:16:36.864Z,1.9
2022-12-04T03:21:33.181Z,1.8
2022-12-04T03:24:04.140Z,1.3
2022-12-04T03:25:04.126Z,0.9
2022-12-04T03:26:04.153Z,1.5
2022-12-04T03:28:41.170Z,1.8
2022-12-04T03:29:36.749Z,1.4
2022-12-04T03:33:37.755Z,1.2
2022-12-04T03:34:33.165Z,1.4
2022-12-04T03:38:04.115Z,1.7
2022-12-04T03:40:04.157Z,1.5
2022-12-04T03:41:04.113Z,0.8
2022-12-04T03:42:41.178Z,0.9
2022-12-04T03:43:36.747Z,0.9
2022-12-04T03:44:34.384Z,0.7
2022-12-04T03:52:04.119Z,0.6
2022-12-04T03:55:04.125Z,0.7
2022-12-04T03:57:38.794Z,1.3
2022-12-04T04:12:50.619Z,0.9
2022-12-04T04:19:42.264Z,1
2022-12-04T04:21:33.463Z,0.8
2022-12-04T04:24:59.237Z,0.9
2022-12-04T04:25:36.282Z,0.9
2022-12-04T04:27:45.986Z,0.7
2022-12-04T04:30:30.646Z,0.8
2022-12-04T04:32:21.796Z,1
2022-12-04T04:39:48.453Z,0.7
2022-12-04T04:45:40.438Z,1.2
2022-12-04T04:47:33.623Z,0.7
2022-12-04T04:54:41.737Z,0.8
2022-12-04T04:59:21.669Z,1.5
2022-12-04T05:06:11.267Z,1.3
2022-12-04T05:06:48.326Z,1.1
2022-12-04T05:07:43.995Z,1
2022-12-04T05:08:02.540Z,0.7
2022-12-04T05:08:39.477Z,1
2022-12-04T05:10:04.107Z,1.1
2022-12-04T05:11:04.114Z,1.2
2022-12-04T05:13:04.131Z,0.7
2022-12-04T05:14:04.116Z,0.8
2022-12-04T05:15:04.144Z,0.6
2022-12-04T05:17:36.733Z,1.1
2022-12-04T05:20:04.951Z,1
2022-12-04T05:23:30.774Z,1
2022-12-04T05:25:04.153Z,0.8
2022-12-04T05:26:04.119Z,0.8
2022-12-04T05:28:04.112Z,0.7
2022-12-04T05:29:04.141Z,0.7
2022-12-04T05:30:41.169Z,0.7
2022-12-04T05:31:36.810Z,0.7
2022-12-04T05:32:34.378Z,0.7
2022-12-04T05:33:48.460Z,0.9
2022-12-04T05:35:06.388Z,0.9
2022-12-04T05:39:04.113Z,0.9
2022-12-04T05:40:04.112Z,1.2
2022-12-04T05:41:04.108Z,1.4
2022-12-04T05:42:04.111Z,1.5
2022-12-04T05:43:04.110Z,1.2
2022-12-04T05:44:04.115Z,1
2022-12-04T05:45:04.123Z,1
2022-12-04T05:46:04.111Z,1.3
2022-12-04T05:47:04.182Z,1.4
2022-12-04T05:48:04.143Z,1.6
2022-12-04T05:49:04.200Z,1.8
2022-12-04T05:50:04.118Z,1.5
2022-12-04T05:51:04.110Z,1.9
2022-12-04T05:52:04.524Z,1.8
2022-12-04T05:53:04.107Z,1.9
2022-12-04T05:54:04.117Z,1.9
2022-12-04T05:55:04.143Z,2.1
2022-12-04T05:56:41.185Z,2.1
2022-12-04T05:57:36.727Z,2.2
2022-12-04T05:58:50.837Z,2.3
2022-12-04T06:00:04.971Z,2.4
2022-12-04T06:01:37.617Z,2.3
2022-12-04T06:02:33.392Z,2.3
2022-12-04T06:04:42.802Z,2.4
2022-12-04T06:05:40.433Z,2.4
2022-12-04T06:07:04.107Z,2.4
2022-12-04T06:08:04.219Z,2.3
2022-12-04T06:09:04.110Z,1.8
2022-12-04T06:10:04.104Z,1.8
2022-12-04T06:11:04.124Z,1.9
2022-12-04T06:12:04.129Z,2.1
2022-12-04T06:13:41.159Z,1.9
2022-12-04T06:14:39.816Z,1.1
2022-12-04T06:17:04.925Z,1.1
2022-12-04T06:19:33.135Z,1.9
2022-12-04T06:20:49.356Z,1.7
2022-12-04T06:23:04.097Z,1.3
2022-12-04T06:25:04.171Z,1.8
2022-12-04T06:26:07.124Z,1.9
2022-12-04T06:28:36.725Z,1.2
2022-12-04T06:29:50.820Z,1.4
2022-12-04T06:31:04.924Z,1.8
2022-12-04T06:33:33.129Z,2.1
2022-12-04T06:36:04.102Z,1.2
2022-12-04T06:37:04.104Z,1.6
2022-12-04T06:38:04.159Z,1.1
2022-12-04T06:39:04.093Z,1.4
2022-12-04T06:40:04.105Z,1.1
2022-12-04T06:41:04.091Z,0.9
2022-12-04T06:42:04.247Z,1
2022-12-04T06:43:04.104Z,0.9
2022-12-04T06:44:04.099Z,0.8
2022-12-04T06:46:04.185Z,0.8
2022-12-04T06:47:04.098Z,1.2
2022-12-04T06:48:04.101Z,1.5
2022-12-04T06:49:04.108Z,1.4
2022-12-04T06:50:04.259Z,0.8
2022-12-04T06:51:04.111Z,1
2022-12-04T06:52:04.114Z,1.1
2022-12-04T06:54:04.107Z,0.8
2022-12-04T06:55:04.095Z,0.8
2022-12-04T06:56:04.136Z,0.9
2022-12-04T06:58:04.105Z,0.8
2022-12-04T06:59:04.096Z,0.6
2022-12-04T07:00:04.138Z,0.7
2022-12-04T07:02:04.128Z,0.9
2022-12-04T07:03:04.109Z,0.7
2022-12-04T07:05:36.718Z,1
2022-12-04T07:10:33.125Z,1.3
2022-12-04T07:14:36.003Z,1.4
2022-12-04T07:26:44.642Z,1.3
2022-12-04T07:27:21.667Z,1.5
2022-12-04T07:28:35.784Z,0.8
2022-12-04T07:31:43.110Z,0.9
2022-12-04T07:33:36.264Z,0.9
2022-12-04T07:35:45.942Z,0.7
2022-12-04T07:36:04.475Z,1.1
2022-12-04T07:36:41.513Z,1
2022-12-04T07:37:37.085Z,1.2
2022-12-04T07:38:34.708Z,0.9
2022-12-04T07:43:33.159Z,1.2
2022-12-04T07:46:03.525Z,0.8
2022-12-04T07:47:36.039Z,0.9
2022-12-04T07:50:04.108Z,1.1
2022-12-04T07:51:04.116Z,1.2
2022-12-04T08:00:59.314Z,0.9
2022-12-04T08:02:04.090Z,0.8
2022-12-04T08:04:04.121Z,1.4
2022-12-04T08:05:04.132Z,1.3
2022-12-04T08:07:36.888Z,1.3
2022-12-04T08:08:50.822Z,0.9
2022-12-04T08:11:21.083Z,1.1
2022-12-04T08:13:51.315Z,1
2022-12-04T08:16:04.095Z,1.2
2022-12-04T08:17:04.181Z,0.8
2022-12-04T08:18:04.099Z,1
2022-12-04T08:19:04.097Z,1.1
2022-12-04T08:20:04.086Z,1.3
2022-12-04T08:21:04.099Z,1.3
2022-12-04T08:22:04.075Z,1.3
2022-12-04T08:23:04.083Z,1
2022-12-04T08:24:04.079Z,1.2
2022-12-04T08:25:04.077Z,1
2022-12-04T08:26:04.079Z,1.1
2022-12-04T08:27:04.076Z,1
2022-12-04T08:28:04.101Z,0.9
2022-12-04T08:29:04.117Z,1.1
2022-12-04T08:30:04.076Z,0.9
2022-12-04T08:31:04.132Z,1.1
2022-12-04T08:33:04.097Z,1.4
2022-12-04T08:34:04.083Z,1.5
2022-12-04T08:35:04.081Z,1.3
2022-12-04T08:36:04.068Z,1.6
2022-12-04T08:37:04.084Z,1.2
2022-12-04T08:39:04.077Z,1
2022-12-04T08:40:04.076Z,1.3
2022-12-04T08:41:04.086Z,1.5
2022-12-04T08:42:04.075Z,1.2
2022-12-04T08:43:04.078Z,1.4
2022-12-04T08:44:04.089Z,1.6
2022-12-04T08:45:04.101Z,1.4
2022-12-04T08:46:04.190Z,1.3
2022-12-04T08:47:04.089Z,1.5
2022-12-04T08:48:04.073Z,1.7
2022-12-04T08:49:04.087Z,1.5
2022-12-04T08:50:04.089Z,1.2
2022-12-04T08:51:04.071Z,1
2022-12-04T08:52:04.077Z,1.1
2022-12-04T08:53:04.084Z,1.3
2022-12-04T08:54:04.097Z,0.9
2022-12-04T08:55:04.077Z,0.9
2022-12-04T08:56:04.114Z,1
2022-12-04T08:57:04.094Z,1.3
2022-12-04T08:58:04.071Z,1.4
2022-12-04T09:00:04.080Z,1.1
2022-12-04T09:01:04.185Z,1.1
2022-12-04T09:02:04.223Z,1.3
2022-12-04T09:03:04.083Z,1.4
2022-12-04T09:04:04.119Z,1.1
2022-12-04T09:05:04.085Z,1.3
2022-12-04T09:06:04.085Z,1.7
2022-12-04T09:07:04.091Z,1.4
2022-12-04T09:08:04.130Z,1.1
2022-12-04T09:09:04.126Z,1.3
2022-12-04T09:10:04.067Z,1.2
2022-12-04T09:11:04.071Z,1.1
2022-12-04T09:12:04.073Z,1.1
2022-12-04T09:13:04.071Z,1.5
2022-12-04T09:14:04.079Z,1.8
2022-12-04T09:15:04.072Z,1.5
2022-12-04T09:16:04.166Z,1.7
2022-12-04T09:17:04.092Z,2
2022-12-04T09:18:04.080Z,2
2022-12-04T09:19:04.072Z,1.7
2022-12-04T09:20:04.393Z,1.4
2022-12-04T09:22:04.069Z,1.2
2022-12-04T09:23:05.241Z,1.1
2022-12-04T09:24:04.076Z,1.1
2022-12-04T09:25:04.077Z,1
2022-12-04T09:26:04.068Z,1.2
2022-12-04T09:27:04.075Z,1.1
2022-12-04T09:29:04.074Z,1.1
2022-12-04T09:30:04.077Z,1.2
2022-12-04T09:31:04.139Z,1.2
2022-12-04T09:33:04.075Z,1.2
2022-12-04T09:34:04.066Z,1.2
2022-12-04T09:35:04.065Z,1.4
2022-12-04T09:36:04.069Z,1.2
2022-12-04T09:37:04.075Z,1.2
2022-12-04T09:38:04.083Z,1.2
2022-12-04T09:39:04.098Z,1.2
2022-12-04T09:40:04.099Z,1.2
2022-12-04T09:41:04.070Z,1.2
2022-12-04T09:42:04.069Z,1.3
2022-12-04T09:43:04.060Z,1.6
2022-12-04T09:44:04.064Z,1.7
2022-12-04T09:45:04.067Z,1.4
2022-12-04T09:46:04.184Z,1.1
2022-12-04T09:47:04.262Z,1.4
2022-12-04T09:48:04.067Z,1.3
2022-12-04T09:49:04.067Z,1.6
2022-12-04T09:50:04.086Z,1.6
2022-12-04T09:51:04.061Z,1.9
2022-12-04T09:53:04.074Z,2.3
2022-12-04T09:54:04.076Z,2.4
2022-12-04T09:55:04.068Z,2.5
2022-12-04T09:57:04.068Z,2.2
2022-12-04T09:58:04.069Z,2.5
2022-12-04T09:59:04.072Z,2
2022-12-04T10:00:04.062Z,1.9
2022-12-04T10:01:04.067Z,1.8
2022-12-04T10:02:04.096Z,1.7
2022-12-04T10:03:04.209Z,1.3
2022-12-04T10:04:06.436Z,1.2
2022-12-04T10:05:04.070Z,1.2
2022-12-04T10:06:04.113Z,1.2
2022-12-04T10:07:04.088Z,1.3
2022-12-04T10:08:04.147Z,1.3
2022-12-04T10:09:04.090Z,1.2
2022-12-04T10:10:04.062Z,1.2
2022-12-04T10:11:04.130Z,1.5
2022-12-04T10:12:04.085Z,1.3
2022-12-04T10:14:04.065Z,1.6
2022-12-04T10:15:04.065Z,1.7
2022-12-04T10:16:04.134Z,1.2
2022-12-04T10:17:04.070Z,1.2
2022-12-04T10:18:04.068Z,1.5
2022-12-04T10:19:04.067Z,1.3
2022-12-04T10:21:04.085Z,1.6
2022-12-04T10:22:04.082Z,1.7
2022-12-04T10:23:04.066Z,1.6
2022-12-04T10:24:04.069Z,1.7
2022-12-04T10:25:04.063Z,1.4
2022-12-04T10:26:04.060Z,1.7
2022-12-04T10:27:04.065Z,1.8
2022-12-04T10:28:04.067Z,1.8
2022-12-04T10:29:04.061Z,1.5
2022-12-04T10:30:04.068Z,1.5
2022-12-04T10:31:04.080Z,1.8
2022-12-04T10:34:04.064Z,1.3
2022-12-04T10:35:04.054Z,1.7
2022-12-04T10:36:04.058Z,1.9
2022-12-04T10:37:04.056Z,1.6
2022-12-04T10:38:04.061Z,1.8
2022-12-04T10:39:04.060Z,1.9
2022-12-04T10:40:04.068Z,1.7
2022-12-04T10:41:04.067Z,1.9
2022-12-04T10:42:04.092Z,1.8
2022-12-04T10:43:04.062Z,1.5
2022-12-04T10:44:04.068Z,1.9
2022-12-04T10:46:04.179Z,1.5
2022-12-04T10:47:04.140Z,1.5
2022-12-04T10:48:04.061Z,1.5
2022-12-04T10:49:04.057Z,1.5
2022-12-04T10:50:04.067Z,1.7
2022-12-04T10:51:04.067Z,1.7
2022-12-04T10:52:04.064Z,2.1
2022-12-04T10:53:06.332Z,2.1
2022-12-04T10:54:04.065Z,1.8
2022-12-04T10:55:04.068Z,2.2
2022-12-04T10:56:04.073Z,1.9
2022-12-04T10:57:04.058Z,2
2022-12-04T10:58:04.068Z,1.9
2022-12-04T10:59:04.060Z,1.7
2022-12-04T11:00:04.055Z,2.1
2022-12-04T11:01:04.065Z,2.1
2022-12-04T11:02:06.995Z,2.4
2022-12-04T11:03:04.111Z,2.2
2022-12-04T11:04:04.058Z,2.6
2022-12-04T11:05:04.060Z,2.3
2022-12-04T11:07:04.074Z,1.8
2022-12-04T11:08:04.134Z,2.2
2022-12-04T11:09:04.470Z,2.1
2022-12-04T11:10:04.052Z,2.3
2022-12-04T11:11:04.065Z,1.6
2022-12-04T11:12:04.061Z,2.1
2022-12-04T11:13:04.083Z,2.2
2022-12-04T11:14:04.065Z,2.3
2022-12-04T11:15:04.072Z,2.7
2022-12-04T11:16:04.116Z,2.7
2022-12-04T11:17:04.068Z,1.9
2022-12-04T11:18:04.058Z,2.1
2022-12-04T11:19:04.062Z,2.4
2022-12-04T11:20:04.063Z,2.7
2022-12-04T11:21:04.057Z,2
2022-12-04T11:22:04.076Z,2.4
2022-12-04T11:23:04.059Z,2.6
2022-12-04T11:25:04.093Z,2.3
2022-12-04T11:26:06.441Z,2
2022-12-04T11:27:04.064Z,1.8
2022-12-04T11:28:04.065Z,1.9
2022-12-04T11:29:04.059Z,1.6
2022-12-04T11:30:04.059Z,2.1
2022-12-04T11:31:04.102Z,2.3
2022-12-04T11:31:58.568Z,2.1
2022-12-04T11:33:04.062Z,2
2022-12-04T11:34:04.058Z,2
2022-12-04T11:35:04.056Z,2.1
2022-12-04T11:36:04.056Z,2
2022-12-04T11:38:04.058Z,1.7
2022-12-04T11:39:04.076Z,2.2
2022-12-04T11:40:04.048Z,2.2
2022-12-04T11:41:04.064Z,2.1
2022-12-04T11:42:04.072Z,1.7
2022-12-04T11:43:04.114Z,1.7
2022-12-04T11:44:04.077Z,1.8
2022-12-04T11:45:04.058Z,2.1
2022-12-04T11:46:04.060Z,2.3
2022-12-04T11:47:04.096Z,2.3
2022-12-04T11:48:04.061Z,2.2
2022-12-04T11:50:04.066Z,2.1
2022-12-04T11:51:04.066Z,2
2022-12-04T11:52:04.046Z,2
2022-12-04T11:53:04.060Z,2.1
2022-12-04T11:54:04.054Z,1.8
2022-12-04T11:55:04.061Z,2.1
2022-12-04T11:56:04.083Z,1.8
2022-12-04T11:57:04.302Z,2
2022-12-04T11:58:04.048Z,2.1
2022-12-04T11:59:04.069Z,2.5
2022-12-04T12:00:04.057Z,2.5
2022-12-04T12:01:04.041Z,2.4
2022-12-04T12:02:04.157Z,2.5
2022-12-04T12:03:04.265Z,2.7
2022-12-04T12:04:04.057Z,3
2022-12-04T12:05:04.081Z,2.2
2022-12-04T12:06:04.062Z,2.2
2022-12-04T12:07:04.084Z,2.2
2022-12-04T12:08:04.053Z,2.4
2022-12-04T12:09:04.046Z,2.5
2022-12-04T12:10:04.064Z,2.6
2022-12-04T12:12:04.087Z,2.3
2022-12-04T12:14:04.055Z,2.6
2022-12-04T12:15:04.096Z,2.7
2022-12-04T12:16:04.109Z,2.5
2022-12-04T12:17:04.049Z,2.6
2022-12-04T12:18:04.051Z,2.5
2022-12-04T12:20:04.044Z,2.5
2022-12-04T12:21:04.059Z,2.5
2022-12-04T12:22:05.537Z,2.1
2022-12-04T12:23:04.047Z,2.1
2022-12-04T12:24:04.052Z,1.9
2022-12-04T12:25:04.043Z,2.3
2022-12-04T12:26:04.050Z,2.7
2022-12-04T12:27:04.055Z,2.6
2022-12-04T12:28:04.476Z,2.1
2022-12-04T12:29:04.042Z,1.9
2022-12-04T12:31:05.965Z,2
2022-12-04T12:33:04.049Z,2
2022-12-04T12:34:04.051Z,2.1
2022-12-04T12:35:04.044Z,2.1
2022-12-04T12:36:04.057Z,2.2
2022-12-04T12:37:04.062Z,2.3
2022-12-04T12:38:04.057Z,2.5
2022-12-04T12:39:04.049Z,2.6
2022-12-04T12:40:04.041Z,2.1
2022-12-04T12:41:04.046Z,2.1
2022-12-04T12:42:04.067Z,2.5
2022-12-04T12:43:04.081Z,2.2
2022-12-04T12:44:04.107Z,2
2022-12-04T12:45:04.040Z,2.2
2022-12-04T12:46:04.199Z,2.7
2022-12-04T12:47:04.056Z,2.3
2022-12-04T12:48:04.042Z,2.6
2022-12-04T12:50:04.042Z,2.3
2022-12-04T12:52:04.038Z,2.3
2022-12-04T12:54:04.047Z,2.1
2022-12-04T12:55:04.046Z,2.7
2022-12-04T12:56:04.041Z,2.5
2022-12-04T12:57:04.047Z,2.2
2022-12-04T12:58:04.040Z,2.2
2022-12-04T13:00:04.044Z,2.9
2022-12-04T13:01:04.149Z,2.5
2022-12-04T13:02:04.213Z,2.6
2022-12-04T13:03:04.128Z,2.3
2022-12-04T13:04:04.058Z,2.5
2022-12-04T13:05:04.042Z,2.8
2022-12-04T13:06:04.042Z,2.9
2022-12-04T13:07:04.040Z,2.9
2022-12-04T13:08:04.109Z,2.5
2022-12-04T13:10:04.360Z,2.5
2022-12-04T13:11:04.041Z,2.6
2022-12-04T13:12:04.038Z,2.8
2022-12-04T13:13:04.046Z,3.2
2022-12-04T13:15:04.059Z,3.2
2022-12-04T13:16:04.045Z,3.1
2022-12-04T13:17:04.153Z,3.6
2022-12-04T13:18:04.043Z,3.8
2022-12-04T13:20:09.596Z,3.9
2022-12-04T13:21:04.048Z,3.3
2022-12-04T13:22:04.040Z,3.3
2022-12-04T13:23:04.083Z,2.9
2022-12-04T13:24:04.033Z,2.3
2022-12-04T13:25:04.065Z,2.7
2022-12-04T13:26:04.042Z,2.3
2022-12-04T13:27:04.045Z,2.5
2022-12-04T13:28:04.104Z,2.4
2022-12-04T13:29:04.042Z,2.2
2022-12-04T13:30:04.051Z,2.2
2022-12-04T13:31:04.043Z,2.6
2022-12-04T13:32:04.119Z,2.7
2022-12-04T13:34:04.047Z,3.2
2022-12-04T13:35:04.041Z,2.5
2022-12-04T13:36:04.040Z,2.6
2022-12-04T13:37:04.040Z,2.3
2022-12-04T13:38:04.040Z,2.3
2022-12-04T13:39:04.047Z,2.3
2022-12-04T13:40:04.058Z,2.5
2022-12-04T13:41:04.047Z,2.2
2022-12-04T13:42:04.039Z,2.1
2022-12-04T13:43:04.042Z,2.4
2022-12-04T13:45:04.089Z,2.8
2022-12-04T13:46:04.070Z,2.7
2022-12-04T13:47:04.037Z,2.5
2022-12-04T13:48:04.092Z,2.6
2022-12-04T13:49:04.045Z,3
2022-12-04T13:50:06.420Z,2.4
2022-12-04T13:51:04.060Z,2.7
2022-12-04T13:52:04.040Z,2.5
2022-12-04T13:54:04.034Z,2.5
2022-12-04T13:55:04.051Z,2.2
2022-12-04T13:56:08.162Z,2.2
2022-12-04T13:57:04.051Z,2.2
2022-12-04T13:58:04.035Z,2.5
2022-12-04T13:59:04.038Z,3.1
2022-12-04T14:00:04.052Z,3.2
2022-12-04T14:01:04.140Z,3.2
2022-12-04T14:02:08.090Z,3.1
2022-12-04T14:03:04.200Z,3.1
2022-12-04T14:04:04.040Z,3.1
2022-12-04T14:06:04.041Z,2.7
2022-12-04T14:07:04.046Z,3
2022-12-04T14:08:07.193Z,3.3
2022-12-04T14:10:04.051Z,2.9
2022-12-04T14:11:04.026Z,2.6
2022-12-04T14:12:04.084Z,3
2022-12-04T14:13:04.032Z,2.7
2022-12-04T14:14:08.162Z,2.8
2022-12-04T14:15:04.034Z,2.6
2022-12-04T14:16:04.032Z,2.4
2022-12-04T14:17:04.057Z,2.3
2022-12-04T14:18:04.034Z,2.3
2022-12-04T14:19:04.070Z,2.5
2022-12-04T14:20:07.806Z,2.5
2022-12-04T14:21:04.033Z,2.3
2022-12-04T14:22:04.035Z,2.3
2022-12-04T14:23:04.035Z,2.6
2022-12-04T14:24:04.036Z,2.8
2022-12-04T14:25:04.042Z,3
2022-12-04T14:27:11.695Z,2.3
2022-12-04T14:28:04.030Z,2.3
2022-12-04T14:29:04.040Z,2.6
2022-12-04T14:30:04.051Z,2.6
2022-12-04T14:31:04.169Z,2.4
2022-12-04T14:32:04.028Z,2.5
2022-12-04T14:33:04.031Z,2.7
2022-12-04T14:35:04.027Z,3.2
2022-12-04T14:36:04.030Z,2.9
2022-12-04T14:37:04.027Z,2.5
2022-12-04T14:38:04.028Z,2.5
2022-12-04T14:39:04.031Z,2.4
2022-12-04T14:40:04.035Z,2.7
2022-12-04T14:41:04.027Z,2.5
2022-12-04T14:43:04.037Z,2.4
2022-12-04T14:44:04.024Z,2.6
2022-12-04T14:45:04.036Z,2.6
2022-12-04T14:46:04.115Z,3
2022-12-04T14:48:04.036Z,3.5
2022-12-04T14:49:04.025Z,3.5
2022-12-04T14:50:04.069Z,3.6
2022-12-04T14:51:04.028Z,3.8
2022-12-04T14:52:04.036Z,4
2022-12-04T14:54:04.038Z,4.1
2022-12-04T14:56:07.470Z,4.3
2022-12-04T14:57:04.031Z,4.1
2022-12-04T14:58:04.025Z,4.2
2022-12-04T14:59:04.026Z,4
2022-12-04T15:00:04.016Z,4.2
2022-12-04T15:01:04.032Z,3.2
2022-12-04T15:02:04.031Z,2.6
2022-12-04T15:03:04.122Z,2.5
2022-12-04T15:04:04.086Z,2.4
2022-12-04T15:05:04.091Z,2.5
2022-12-04T15:06:04.073Z,2.5
2022-12-04T15:07:04.027Z,2.6
2022-12-04T15:08:04.132Z,2.6
2022-12-04T15:10:04.026Z,3.1
2022-12-04T15:11:04.026Z,3.4
2022-12-04T15:12:04.030Z,3.2
2022-12-04T15:14:04.029Z,2.9
2022-12-04T15:15:04.022Z,2.9
2022-12-04T15:16:04.105Z,2.9
2022-12-04T15:17:04.042Z,2.6
2022-12-04T15:18:04.023Z,2.7
2022-12-04T15:19:04.026Z,2.7
2022-12-04T15:20:04.118Z,2.6
2022-12-04T15:21:04.069Z,3
2022-12-04T15:22:07.411Z,2.7
2022-12-04T15:23:04.349Z,2.7
2022-12-04T15:24:04.024Z,2.9
2022-12-04T15:25:04.032Z,2.9
2022-12-04T15:26:04.037Z,2.5
2022-12-04T15:27:04.032Z,2.6
2022-12-04T15:28:04.062Z,2.5
2022-12-04T15:29:04.051Z,2.7
2022-12-04T15:30:04.101Z,3.1
2022-12-04T15:31:04.131Z,3.3
2022-12-04T15:32:04.029Z,3.3
2022-12-04T15:33:04.055Z,3.4
2022-12-04T15:34:04.019Z,3.2
2022-12-04T15:35:04.027Z,3.7
2022-12-04T15:36:04.023Z,3.8
2022-12-04T15:37:04.023Z,3.8
2022-12-04T15:38:04.032Z,4
2022-12-04T15:39:04.020Z,4.1
2022-12-04T15:41:04.023Z,4
2022-12-04T15:42:04.026Z,4
2022-12-04T15:43:04.020Z,4.1
2022-12-04T15:44:04.028Z,4.1
2022-12-04T15:45:04.030Z,4.1
2022-12-04T15:46:04.066Z,4.2
2022-12-04T15:47:04.023Z,4.1
2022-12-04T15:48:04.031Z,4.1
2022-12-04T15:49:04.030Z,4.2
2022-12-04T15:50:04.029Z,4.3
2022-12-04T15:52:04.049Z,4.3
2022-12-04T15:52:56.920Z,4.2
2022-12-04T15:54:04.016Z,4.3
2022-12-04T15:56:04.029Z,4.1
2022-12-04T15:57:04.035Z,4.1
2022-12-04T15:58:04.014Z,4
2022-12-04T15:59:04.025Z,4
2022-12-04T16:00:04.017Z,4
2022-12-04T16:01:04.037Z,4.1
2022-12-04T16:02:04.107Z,4.1
2022-12-04T16:03:04.027Z,4
2022-12-04T16:04:04.085Z,4.1
2022-12-04T16:05:04.030Z,4.2
2022-12-04T16:06:04.027Z,4
2022-12-04T16:07:04.041Z,4
2022-12-04T16:08:04.078Z,4
2022-12-04T16:09:04.034Z,3.9
2022-12-04T16:10:04.513Z,3.6
2022-12-04T16:11:04.037Z,3.6
2022-12-04T16:13:04.026Z,3.6
2022-12-04T16:14:04.020Z,3.7
2022-12-04T16:15:04.021Z,3.5
2022-12-04T16:16:04.059Z,3.5
2022-12-04T16:18:04.027Z,3.2
2022-12-04T16:19:04.019Z,3.2
2022-12-04T16:20:04.067Z,2.8
2022-12-04T16:21:04.022Z,3.1
2022-12-04T16:22:04.021Z,3.3
2022-12-04T16:23:04.060Z,3.2
2022-12-04T16:24:04.020Z,3.1
2022-12-04T16:25:04.071Z,2.9
2022-12-04T16:26:04.017Z,3
2022-12-04T16:27:04.021Z,3
2022-12-04T16:28:04.025Z,3.2
2022-12-04T16:29:04.036Z,2.8
2022-12-04T16:30:04.058Z,2.5
2022-12-04T16:31:04.081Z,2.7
2022-12-04T16:32:04.087Z,3
2022-12-04T16:33:04.018Z,3.1
2022-12-04T16:34:04.016Z,3
2022-12-04T16:35:04.051Z,2.5
2022-12-04T16:36:04.018Z,2.5
2022-12-04T16:37:04.016Z,2.6
2022-12-04T16:39:04.031Z,2.4
2022-12-04T16:40:04.011Z,2.7
2022-12-04T16:41:04.016Z,2.9
2022-12-04T16:42:04.019Z,2.8
2022-12-04T16:43:04.008Z,2.9
2022-12-04T16:44:04.018Z,3.1
2022-12-04T16:45:04.012Z,3
2022-12-04T16:46:04.045Z,3.1
2022-12-04T16:47:04.022Z,3.2
2022-12-04T16:48:04.017Z,3.1
2022-12-04T16:49:07.430Z,3.1
2022-12-04T16:50:04.018Z,3
2022-12-04T16:51:04.011Z,2.9
2022-12-04T16:52:04.025Z,2.7
2022-12-04T16:53:04.014Z,2.7
2022-12-04T16:54:04.079Z,2.7
2022-12-04T16:55:05.529Z,2.9
2022-12-04T16:56:04.025Z,2.6
2022-12-04T16:57:04.021Z,2.9
2022-12-04T16:58:04.025Z,2.7
2022-12-04T17:00:04.080Z,2.9
2022-12-04T17:01:04.017Z,3.1
2022-12-04T17:02:04.102Z,3.1
2022-12-04T17:03:04.038Z,3
2022-12-04T17:04:04.037Z,3.1
2022-12-04T17:05:04.544Z,2.8
2022-12-04T17:06:04.018Z,3
2022-12-04T17:08:04.053Z,2.9
2022-12-04T17:09:04.016Z,2.9
2022-12-04T17:10:04.016Z,3
2022-12-04T17:11:04.017Z,3.1
2022-12-04T17:13:04.009Z,3
2022-12-04T17:14:04.014Z,3.1
2022-12-04T17:15:04.008Z,3.3
2022-12-04T17:16:04.078Z,3.4
2022-12-04T17:17:04.007Z,3.4
2022-12-04T17:18:09.402Z,3.5
2022-12-04T17:19:04.015Z,3.6
2022-12-04T17:20:04.002Z,3.6
2022-12-04T17:21:04.013Z,3.7
2022-12-04T17:22:04.037Z,3.7
2022-12-04T17:23:04.009Z,3.6
2022-12-04T17:24:04.024Z,3.6
2022-12-04T17:25:04.040Z,3.7
2022-12-04T17:26:04.025Z,3.2
2022-12-04T17:27:04.010Z,2.9
2022-12-04T17:29:04.063Z,3.5
2022-12-04T17:30:04.012Z,3
2022-12-04T17:31:04.061Z,3.5
2022-12-04T17:32:04.017Z,3
2022-12-04T17:33:04.015Z,3.4
2022-12-04T17:34:04.004Z,3.5
2022-12-04T17:35:04.016Z,3.2
2022-12-04T17:36:04.010Z,3.2
2022-12-04T17:37:04.007Z,3.4
2022-12-04T17:38:06.255Z,3.2
2022-12-04T17:39:04.089Z,3.3
2022-12-04T17:40:04.007Z,3.1
2022-12-04T17:42:04.011Z,3.6
2022-12-04T17:43:04.018Z,3.5
2022-12-04T17:44:04.016Z,3.5
2022-12-04T17:45:04.007Z,3.7
2022-12-04T17:46:04.029Z,3.7
2022-12-04T17:47:04.055Z,3.8
2022-12-04T17:48:04.018Z,3.9
2022-12-04T17:50:04.013Z,4
2022-12-04T17:51:04.011Z,4.1
2022-12-04T17:52:04.012Z,4.1
2022-12-04T17:53:04.004Z,4
2022-12-04T17:54:04.023Z,3.9
2022-12-04T17:55:04.008Z,3.7
2022-12-04T17:56:04.033Z,3.9
2022-12-04T17:57:04.012Z,3.9
2022-12-04T17:58:04.007Z,3.9
2022-12-04T17:59:04.009Z,3.9
2022-12-04T18:00:04.001Z,3.6
2022-12-04T18:01:04.056Z,3.6
2022-12-04T18:02:04.009Z,3.8
2022-12-04T18:03:04.106Z,3.9
2022-12-04T18:04:04.003Z,3.9
2022-12-04T18:05:04.010Z,3.8
2022-12-04T18:06:04.036Z,3.8
2022-12-04T18:07:04.011Z,3.8
2022-12-04T18:08:04.082Z,3.9
2022-12-04T18:09:04.005Z,3.9
2022-12-04T18:10:04.013Z,3.9
2022-12-04T18:11:04.009Z,4
2022-12-04T18:12:04.013Z,4
2022-12-04T18:13:03.999Z,3.9
2022-12-04T18:14:10.119Z,3.9
2022-12-04T18:15:04.025Z,3.9
2022-12-04T18:16:04.147Z,3.9
2022-12-04T18:18:04.003Z,3.9
2022-12-04T18:19:04.003Z,3.9
2022-12-04T18:20:05.441Z,3.6
2022-12-04T18:21:04.004Z,3.8
2022-12-04T18:22:04.003Z,3.7
2022-12-04T18:23:04.001Z,3.7
2022-12-04T18:24:20.814Z,3.9
2022-12-04T18:26:04.005Z,4
2022-12-04T18:27:04.033Z,3.9
2022-12-04T18:28:04.003Z,3.8
2022-12-04T18:31:04.006Z,3.9
2022-12-04T18:32:04.052Z,3.7
2022-12-04T18:33:04.003Z,3.7
2022-12-04T18:34:04.002Z,3.5
2022-12-04T18:35:04.008Z,3.6
2022-12-04T18:36:04.005Z,3.6
2022-12-04T18:37:04.004Z,3.7
2022-12-04T18:38:04.005Z,3.7
2022-12-04T18:39:04.006Z,3.6
2022-12-04T18:41:04.015Z,3.6
2022-12-04T18:42:04.009Z,3.6
2022-12-04T18:43:04.004Z,3.7
2022-12-04T18:44:03.996Z,3.5
2022-12-04T18:45:04.011Z,3.7
2022-12-04T18:46:07.372Z,3.4
2022-12-04T18:47:04.002Z,3.3
2022-12-04T18:48:04.000Z,3.2
2022-12-04T18:49:04.003Z,3.2
2022-12-04T18:50:04.218Z,3.3
2022-12-04T18:52:03.997Z,3
2022-12-04T18:53:03.997Z,3
2022-12-04T18:54:04.014Z,3.1
2022-12-04T18:55:04.001Z,2.9
2022-12-04T18:56:04.002Z,2.9
2022-12-04T18:57:04.002Z,2.8
2022-12-04T18:58:04.029Z,2.9
2022-12-04T18:59:03.993Z,2.9
2022-12-04T19:00:04.004Z,3
2022-12-04T19:01:04.070Z,3
2022-12-04T19:02:04.046Z,2.9
2022-12-04T19:03:04.006Z,2.9
2022-12-04T19:04:03.999Z,2.6
2022-12-04T19:05:04.003Z,2.8
2022-12-04T19:06:04.062Z,3
2022-12-04T19:08:04.060Z,3.1
2022-12-04T19:09:04.009Z,3.1
2022-12-04T19:10:11.662Z,3.2
2022-12-04T19:11:04.006Z,3.2
2022-12-04T19:12:03.997Z,3.3
2022-12-04T19:13:04.009Z,3.3
2022-12-04T19:14:10.244Z,3.3
2022-12-04T19:15:03.998Z,3.3
2022-12-04T19:16:04.044Z,3.4
2022-12-04T19:17:04.063Z,3.4
2022-12-04T19:18:04.003Z,3.5
2022-12-04T19:19:04.020Z,3.5
2022-12-04T19:21:04.001Z,3.6
2022-12-04T19:22:04.000Z,3.6
2022-12-04T19:23:04.013Z,3.8
2022-12-04T19:25:03.996Z,3.7
2022-12-04T19:26:03.994Z,3.6